createdAt,value
2023-07-10T00:00:46.993Z,1.90
2023-07-10T00:01:46.963Z,1.80
2023-07-10T00:02:46.993Z,1.80
2023-07-10T00:03:47.017Z,1.90
2023-07-10T00:04:47.013Z,1.70
2023-07-10T00:05:46.945Z,1.80
2023-07-10T00:06:46.954Z,1.80
2023-07-10T00:07:46.988Z,1.80
2023-07-10T00:08:46.920Z,1.70
2023-07-10T00:09:46.914Z,2.10
2023-07-10T00:10:46.913Z,2.00
2023-07-10T00:11:46.929Z,2.20
2023-07-10T00:12:46.894Z,1.90
2023-07-10T00:13:46.952Z,1.90
2023-07-10T00:14:46.878Z,2.00
2023-07-10T00:15:46.879Z,2.10
2023-07-10T00:16:46.946Z,2.10
2023-07-10T00:17:46.954Z,2.20
2023-07-10T00:18:46.850Z,2.10
2023-07-10T00:19:46.838Z,2.10
2023-07-10T00:20:46.878Z,2.00
2023-07-10T00:21:46.844Z,2.00
2023-07-10T00:22:46.821Z,1.90
2023-07-10T00:23:46.819Z,1.90
2023-07-10T00:24:46.789Z,1.80
2023-07-10T00:25:46.803Z,1.90
2023-07-10T00:26:46.810Z,2.00
2023-07-10T00:27:46.778Z,1.90
2023-07-10T00:28:46.774Z,2.10
2023-07-10T00:29:46.767Z,2.00
2023-07-10T00:30:46.870Z,1.90
2023-07-10T00:31:46.748Z,1.80
2023-07-10T00:32:46.768Z,1.90
2023-07-10T00:33:46.743Z,2.00
2023-07-10T00:34:46.756Z,1.80
2023-07-10T00:35:46.738Z,1.80
2023-07-10T00:36:46.715Z,2.20
2023-07-10T00:37:46.708Z,2.00
2023-07-10T00:38:46.706Z,2.30
2023-07-10T00:39:46.738Z,2.00
2023-07-10T00:40:46.692Z,2.30
2023-07-10T00:41:46.681Z,2.10
2023-07-10T00:42:46.674Z,2.20
2023-07-10T00:43:46.664Z,2.10
2023-07-10T00:44:46.669Z,2.10
2023-07-10T00:45:46.745Z,1.90
2023-07-10T00:46:46.796Z,2.30
2023-07-10T00:47:46.775Z,2.30
2023-07-10T00:48:46.727Z,2.00
2023-07-10T00:49:46.648Z,1.80
2023-07-10T00:50:46.628Z,2.00
2023-07-10T00:51:46.615Z,2.00
2023-07-10T00:52:46.600Z,2.20
2023-07-10T00:53:46.602Z,2.40
2023-07-10T00:54:46.609Z,1.90
2023-07-10T00:55:46.574Z,2.20
2023-07-10T00:56:46.668Z,2.10
2023-07-10T00:57:46.577Z,2.10
2023-07-10T00:58:46.611Z,2.20
2023-07-10T00:59:46.541Z,2.30
2023-07-10T01:00:46.581Z,2.30
2023-07-10T01:01:49.151Z,2.20
2023-07-10T01:02:47.738Z,1.90
2023-07-10T01:03:46.532Z,2.10
2023-07-10T01:04:46.533Z,2.10
2023-07-10T01:05:46.524Z,2.10
2023-07-10T01:06:46.503Z,1.90
2023-07-10T01:07:46.506Z,2.20
2023-07-10T01:08:46.507Z,2.20
2023-07-10T01:09:46.475Z,2.20
2023-07-10T01:10:46.470Z,2.30
2023-07-10T01:11:46.477Z,2.40
2023-07-10T01:12:46.471Z,2.40
2023-07-10T01:13:47.926Z,2.30
2023-07-10T01:14:46.431Z,2.00
2023-07-10T01:15:46.447Z,1.90
2023-07-10T01:16:46.494Z,2.00
2023-07-10T01:17:46.450Z,2.20
2023-07-10T01:18:46.412Z,2.10
2023-07-10T01:19:46.405Z,2.10
2023-07-10T01:20:47.265Z,2.10
2023-07-10T01:21:47.118Z,2.50
2023-07-10T01:22:46.531Z,2.20
2023-07-10T01:23:47.058Z,2.10
2023-07-10T01:24:46.421Z,2.40
2023-07-10T01:25:46.502Z,2.00
2023-07-10T01:26:47.468Z,2.30
2023-07-10T01:27:47.159Z,2.20
2023-07-10T01:28:46.377Z,2.40
2023-07-10T01:29:46.987Z,2.10
2023-07-10T01:30:46.708Z,2.00
2023-07-10T01:31:46.998Z,2.30
2023-07-10T01:32:47.042Z,2.50
2023-07-10T01:33:46.434Z,2.50
2023-07-10T01:34:46.354Z,2.20
2023-07-10T01:35:46.705Z,2.40
2023-07-10T01:36:46.429Z,2.10
2023-07-10T01:37:46.318Z,2.30
2023-07-10T01:38:46.274Z,2.70
2023-07-10T01:39:46.303Z,2.50
2023-07-10T01:40:46.632Z,2.10
2023-07-10T01:41:46.281Z,2.20
2023-07-10T01:42:46.272Z,2.50
2023-07-10T01:43:46.251Z,2.20
2023-07-10T01:44:46.241Z,2.40
2023-07-10T01:45:46.247Z,2.70
2023-07-10T01:46:46.217Z,2.30
2023-07-10T01:47:46.242Z,2.60
2023-07-10T01:48:46.325Z,2.60
2023-07-10T01:49:46.218Z,2.20
2023-07-10T01:50:48.444Z,2.40
2023-07-10T01:51:46.964Z,2.30
2023-07-10T01:52:46.251Z,2.20
2023-07-10T01:53:46.195Z,2.20
2023-07-10T01:54:46.196Z,2.20
2023-07-10T01:55:46.181Z,2.50
2023-07-10T01:56:46.137Z,2.50
2023-07-10T01:57:46.150Z,2.40
2023-07-10T01:58:47.656Z,2.50
2023-07-10T01:59:46.228Z,2.20
2023-07-10T02:00:47.957Z,2.40
2023-07-10T02:01:46.428Z,2.60
2023-07-10T02:02:47.106Z,2.40
2023-07-10T02:03:46.328Z,2.40
2023-07-10T02:04:46.882Z,2.20
2023-07-10T02:05:46.151Z,2.20
2023-07-10T02:06:46.305Z,2.20
2023-07-10T02:07:46.191Z,2.30
2023-07-10T02:08:46.213Z,2.50
2023-07-10T02:09:46.246Z,2.10
2023-07-10T02:10:46.103Z,2.50
2023-07-10T02:11:46.154Z,2.50
2023-07-10T02:12:46.907Z,2.50
2023-07-10T02:13:46.126Z,2.40
2023-07-10T02:14:46.028Z,2.10
2023-07-10T02:15:46.190Z,2.10
2023-07-10T02:16:46.038Z,2.40
2023-07-10T02:17:46.134Z,2.60
2023-07-10T02:18:47.698Z,2.30
2023-07-10T02:19:45.983Z,2.40
2023-07-10T02:20:45.989Z,2.20
2023-07-10T02:21:45.997Z,2.40
2023-07-10T02:22:45.973Z,2.00
2023-07-10T02:23:45.958Z,2.30
2023-07-10T02:24:45.938Z,2.00
2023-07-10T02:25:45.997Z,2.70
2023-07-10T02:26:45.949Z,2.30
2023-07-10T02:27:45.930Z,2.30
2023-07-10T02:28:45.977Z,2.10
2023-07-10T02:29:45.914Z,2.30
2023-07-10T02:30:45.934Z,2.20
2023-07-10T02:31:45.989Z,2.30
2023-07-10T02:32:45.903Z,2.30
2023-07-10T02:33:45.903Z,3.10
2023-07-10T02:34:45.891Z,2.30
2023-07-10T02:35:45.891Z,2.30
2023-07-10T02:36:46.215Z,2.20
2023-07-10T02:37:46.081Z,2.20
2023-07-10T02:38:46.009Z,2.40
2023-07-10T02:39:46.105Z,2.60
2023-07-10T02:40:45.915Z,2.30
2023-07-10T02:41:45.914Z,2.40
2023-07-10T02:42:46.285Z,3.10
2023-07-10T02:43:45.874Z,2.50
2023-07-10T02:44:45.897Z,2.50
2023-07-10T02:45:45.942Z,2.40
2023-07-10T02:46:45.889Z,2.60
2023-07-10T02:47:45.943Z,2.10
2023-07-10T02:48:45.845Z,2.20
2023-07-10T02:49:45.886Z,2.60
2023-07-10T02:50:45.852Z,2.30
2023-07-10T02:51:45.853Z,2.70
2023-07-10T02:52:45.760Z,2.40
2023-07-10T02:53:45.767Z,2.50
2023-07-10T02:54:45.786Z,2.40
2023-07-10T02:55:46.535Z,2.20
2023-07-10T02:56:45.727Z,3.00
2023-07-10T02:57:45.755Z,2.30
2023-07-10T02:58:45.735Z,2.80
2023-07-10T02:59:45.731Z,2.90
2023-07-10T03:00:45.810Z,2.60
2023-07-10T03:01:45.691Z,2.20
2023-07-10T03:02:45.787Z,2.30
2023-07-10T03:03:45.697Z,2.40
2023-07-10T03:04:45.706Z,2.90
2023-07-10T03:05:45.669Z,2.70
2023-07-10T03:06:45.665Z,2.70
2023-07-10T03:07:45.752Z,2.30
2023-07-10T03:08:45.660Z,2.60
2023-07-10T03:09:45.652Z,2.60
2023-07-10T03:10:45.649Z,3.00
2023-07-10T03:11:45.642Z,2.90
2023-07-10T03:12:45.642Z,2.50
2023-07-10T03:13:45.634Z,2.50
2023-07-10T03:14:45.760Z,2.30
2023-07-10T03:15:47.133Z,2.60
2023-07-10T03:16:46.035Z,2.80
2023-07-10T03:17:45.639Z,2.90
2023-07-10T03:18:45.586Z,2.50
2023-07-10T03:19:45.598Z,2.60
2023-07-10T03:20:45.567Z,3.20
2023-07-10T03:21:45.584Z,3.10
2023-07-10T03:22:46.500Z,2.90
2023-07-10T03:23:46.474Z,2.70
2023-07-10T03:24:46.460Z,2.90
2023-07-10T03:25:46.456Z,3.20
2023-07-10T03:26:46.497Z,2.80
2023-07-10T03:27:45.624Z,2.80
2023-07-10T03:28:46.464Z,2.90
2023-07-10T03:29:46.446Z,3.00
2023-07-10T03:30:45.521Z,3.10
2023-07-10T03:31:45.627Z,2.70
2023-07-10T03:32:45.563Z,3.00
2023-07-10T03:33:45.497Z,3.50
2023-07-10T03:34:45.474Z,3.40
2023-07-10T03:35:45.513Z,3.10
2023-07-10T03:36:45.465Z,3.10
2023-07-10T03:37:45.464Z,2.80
2023-07-10T03:38:45.509Z,3.60
2023-07-10T03:39:45.521Z,2.60
2023-07-10T03:40:45.451Z,2.70
2023-07-10T03:41:45.430Z,3.30
2023-07-10T03:42:45.447Z,3.50
2023-07-10T03:43:45.417Z,3.30
2023-07-10T03:44:45.471Z,3.40
2023-07-10T03:45:45.426Z,2.50
2023-07-10T03:46:45.418Z,2.80
2023-07-10T03:47:45.495Z,3.00
2023-07-10T03:48:45.399Z,2.90
2023-07-10T03:49:45.389Z,3.00
2023-07-10T03:50:45.382Z,2.90
2023-07-10T03:51:45.369Z,3.20
2023-07-10T03:52:45.347Z,2.40
2023-07-10T03:53:45.363Z,2.70
2023-07-10T03:54:45.348Z,2.80
2023-07-10T03:55:45.337Z,3.20
2023-07-10T03:56:45.313Z,3.30
2023-07-10T03:57:45.316Z,3.20
2023-07-10T03:58:45.333Z,4.30
2023-07-10T03:59:45.317Z,3.50
2023-07-10T04:00:45.330Z,3.00
2023-07-10T04:01:45.277Z,3.30
2023-07-10T04:02:45.322Z,2.80
2023-07-10T04:03:45.401Z,3.50
2023-07-10T04:04:45.269Z,3.10
2023-07-10T04:05:45.258Z,3.50
2023-07-10T04:06:45.324Z,3.10
2023-07-10T04:07:45.257Z,3.00
2023-07-10T04:08:45.255Z,3.50
2023-07-10T04:09:45.235Z,2.90
2023-07-10T04:10:45.225Z,3.30
2023-07-10T04:11:45.206Z,3.20
2023-07-10T04:12:45.237Z,3.60
2023-07-10T04:13:45.233Z,3.70
2023-07-10T04:14:45.200Z,3.50
2023-07-10T04:15:45.181Z,3.40
2023-07-10T04:16:45.233Z,3.10
2023-07-10T04:17:45.225Z,3.80
2023-07-10T04:18:45.170Z,3.80
2023-07-10T04:19:45.162Z,3.50
2023-07-10T04:20:45.156Z,3.70
2023-07-10T04:21:45.162Z,3.50
2023-07-10T04:22:45.138Z,3.00
2023-07-10T04:23:45.143Z,3.70
2023-07-10T04:24:45.137Z,3.30
2023-07-10T04:25:45.119Z,2.90
2023-07-10T04:26:45.134Z,3.10
2023-07-10T04:27:45.100Z,3.50
2023-07-10T04:28:45.106Z,3.40
2023-07-10T04:29:45.102Z,2.80
2023-07-10T04:30:45.163Z,3.20
2023-07-10T04:31:45.108Z,3.10
2023-07-10T04:32:45.116Z,3.00
2023-07-10T04:33:45.086Z,2.90
2023-07-10T04:34:45.055Z,3.20
2023-07-10T04:35:45.057Z,2.70
2023-07-10T04:36:45.054Z,3.30
2023-07-10T04:37:45.035Z,2.90
2023-07-10T04:38:45.047Z,3.10
2023-07-10T04:39:46.368Z,3.10
2023-07-10T04:40:46.041Z,3.80
2023-07-10T04:41:45.011Z,3.30
2023-07-10T04:42:45.012Z,3.00
2023-07-10T04:43:45.007Z,3.10
2023-07-10T04:44:45.008Z,3.60
2023-07-10T04:45:45.005Z,3.60
2023-07-10T04:46:45.053Z,3.30
2023-07-10T04:47:45.066Z,3.20
2023-07-10T04:48:45.535Z,3.10
2023-07-10T04:49:45.012Z,3.10
2023-07-10T04:50:45.007Z,3.50
2023-07-10T04:51:44.946Z,3.20
2023-07-10T04:52:44.947Z,3.20
2023-07-10T04:53:44.934Z,3.30
2023-07-10T04:54:44.929Z,3.30
2023-07-10T04:55:44.916Z,3.10
2023-07-10T04:56:44.899Z,3.00
2023-07-10T04:57:44.906Z,3.10
2023-07-10T04:58:44.924Z,3.20
2023-07-10T04:59:44.905Z,3.40
2023-07-10T05:00:44.881Z,3.40
2023-07-10T05:01:44.917Z,2.90
2023-07-10T05:02:44.927Z,3.30
2023-07-10T05:03:44.880Z,3.10
2023-07-10T05:04:44.887Z,3.40
2023-07-10T05:05:44.829Z,3.10
2023-07-10T05:06:44.834Z,3.20
2023-07-10T05:07:44.836Z,3.50
2023-07-10T05:08:44.826Z,3.50
2023-07-10T05:09:44.822Z,3.40
2023-07-10T05:10:44.804Z,3.30
2023-07-10T05:11:44.849Z,3.90
2023-07-10T05:12:44.801Z,3.80
2023-07-10T05:13:44.885Z,4.10
2023-07-10T05:14:44.777Z,3.50
2023-07-10T05:15:44.770Z,3.40
2023-07-10T05:16:44.863Z,3.10
2023-07-10T05:17:44.815Z,3.50
2023-07-10T05:18:44.749Z,3.60
2023-07-10T05:19:44.765Z,3.40
2023-07-10T05:20:44.728Z,4.60
2023-07-10T05:21:44.735Z,3.40
2023-07-10T05:22:44.758Z,3.70
2023-07-10T05:23:44.712Z,3.50
2023-07-10T05:24:44.722Z,4.20
2023-07-10T05:25:44.701Z,3.70
2023-07-10T05:26:44.740Z,4.30
2023-07-10T05:27:44.704Z,3.60
2023-07-10T05:28:44.684Z,3.60
2023-07-10T05:29:44.703Z,3.90
2023-07-10T05:30:44.686Z,3.80
2023-07-10T05:31:44.733Z,3.60
2023-07-10T05:32:44.727Z,3.70
2023-07-10T05:33:44.626Z,3.60
2023-07-10T05:34:44.650Z,4.00
2023-07-10T05:35:44.639Z,3.60
2023-07-10T05:36:44.601Z,3.50
2023-07-10T05:37:44.598Z,3.60
2023-07-10T05:38:44.638Z,3.50
2023-07-10T05:39:44.587Z,3.70
2023-07-10T05:40:44.584Z,3.00
2023-07-10T05:41:44.576Z,3.80
2023-07-10T05:42:44.582Z,3.70
2023-07-10T05:43:44.553Z,3.80
2023-07-10T05:44:44.572Z,3.20
2023-07-10T05:45:44.628Z,4.60
2023-07-10T05:46:44.609Z,4.40
2023-07-10T05:47:44.547Z,4.40
2023-07-10T05:48:44.529Z,4.70
2023-07-10T05:49:44.531Z,5.10
2023-07-10T05:50:44.548Z,4.40
2023-07-10T05:51:44.498Z,3.40
2023-07-10T05:52:44.508Z,3.30
2023-07-10T05:53:44.496Z,3.50
2023-07-10T05:54:44.503Z,3.00
2023-07-10T05:55:44.500Z,3.70
2023-07-10T05:56:44.496Z,3.40
2023-07-10T05:57:44.474Z,3.80
2023-07-10T05:58:44.448Z,3.30
2023-07-10T05:59:44.485Z,3.50
2023-07-10T06:00:44.443Z,4.10
2023-07-10T06:01:44.475Z,3.70
2023-07-10T06:02:44.468Z,5.10
2023-07-10T06:03:44.573Z,3.50
2023-07-10T06:04:44.422Z,3.70
2023-07-10T06:05:44.429Z,3.60
2023-07-10T06:06:44.412Z,3.70
2023-07-10T06:07:44.390Z,3.40
2023-07-10T06:08:44.402Z,3.30
2023-07-10T06:09:44.375Z,3.20
2023-07-10T06:10:44.370Z,3.30
2023-07-10T06:11:44.392Z,3.50
2023-07-10T06:12:44.361Z,3.40
2023-07-10T06:13:44.359Z,3.20
2023-07-10T06:14:44.344Z,3.60
2023-07-10T06:15:44.372Z,3.50
2023-07-10T06:16:44.356Z,3.30
2023-07-10T06:17:44.339Z,3.90
2023-07-10T06:18:44.329Z,4.10
2023-07-10T06:19:44.311Z,3.50
2023-07-10T06:20:44.317Z,3.30
2023-07-10T06:21:44.294Z,3.60
2023-07-10T06:22:44.298Z,3.80
2023-07-10T06:23:45.264Z,3.30
2023-07-10T06:24:44.274Z,4.30
2023-07-10T06:25:44.290Z,2.80
2023-07-10T06:26:44.267Z,4.40
2023-07-10T06:27:44.282Z,4.60
2023-07-10T06:28:44.254Z,3.60
2023-07-10T06:29:44.229Z,3.30
2023-07-10T06:30:44.218Z,3.00
2023-07-10T06:31:44.345Z,3.00
2023-07-10T06:32:44.245Z,3.30
2023-07-10T06:33:44.209Z,3.20
2023-07-10T06:34:44.204Z,3.40
2023-07-10T06:35:44.182Z,3.00
2023-07-10T06:36:44.199Z,3.20
2023-07-10T06:37:44.201Z,3.40
2023-07-10T06:38:44.165Z,3.50
2023-07-10T06:39:44.155Z,3.30
2023-07-10T06:40:44.192Z,3.40
2023-07-10T06:41:44.169Z,3.00
2023-07-10T06:42:44.189Z,2.70
2023-07-10T06:43:44.151Z,3.10
2023-07-10T06:44:44.121Z,3.10
2023-07-10T06:45:44.197Z,2.70
2023-07-10T06:46:44.226Z,3.20
2023-07-10T06:47:44.377Z,2.80
2023-07-10T06:48:44.129Z,3.80
2023-07-10T06:49:44.101Z,3.00
2023-07-10T06:50:44.110Z,2.90
2023-07-10T06:51:44.076Z,3.40
2023-07-10T06:52:44.093Z,3.40
2023-07-10T06:53:44.070Z,3.70
2023-07-10T06:54:44.076Z,3.30
2023-07-10T06:55:44.085Z,2.70
2023-07-10T06:56:44.042Z,3.00
2023-07-10T06:57:44.077Z,3.40
2023-07-10T06:58:44.040Z,4.30
2023-07-10T06:59:44.061Z,4.30
2023-07-10T07:00:44.047Z,4.30
2023-07-10T07:01:44.069Z,4.40
2023-07-10T07:02:44.046Z,4.50
2023-07-10T07:03:44.075Z,4.30
2023-07-10T07:04:44.040Z,5.40
2023-07-10T07:05:43.986Z,5.40
2023-07-10T07:06:43.990Z,6.40
2023-07-10T07:07:43.960Z,4.90
2023-07-10T07:08:44.004Z,4.90
2023-07-10T07:09:43.986Z,5.30
2023-07-10T07:10:43.988Z,6.50
2023-07-10T07:11:43.963Z,5.20
2023-07-10T07:12:43.963Z,5.60
2023-07-10T07:13:44.089Z,5.00
2023-07-10T07:14:43.921Z,6.10
2023-07-10T07:15:44.010Z,6.40
2023-07-10T07:16:43.922Z,6.80
2023-07-10T07:17:43.950Z,6.40
2023-07-10T07:18:44.202Z,7.60
2023-07-10T07:19:43.877Z,7.10
2023-07-10T07:20:43.881Z,6.80
2023-07-10T07:21:43.892Z,7.50
2023-07-10T07:22:43.894Z,6.10
2023-07-10T07:23:43.861Z,6.20
2023-07-10T07:24:43.885Z,7.10
2023-07-10T07:25:43.890Z,7.10
2023-07-10T07:26:43.877Z,6.80
2023-07-10T07:27:43.881Z,6.40
2023-07-10T07:28:43.833Z,7.20
2023-07-10T07:29:43.889Z,7.60
2023-07-10T07:30:43.868Z,8.00
2023-07-10T07:31:43.831Z,6.50
2023-07-10T07:32:43.868Z,7.80
2023-07-10T07:33:43.804Z,8.20
2023-07-10T07:34:43.793Z,7.10
2023-07-10T07:35:44.037Z,7.40
2023-07-10T07:36:43.837Z,7.80
2023-07-10T07:37:43.769Z,8.10
2023-07-10T07:38:43.751Z,7.40
2023-07-10T07:39:43.760Z,7.80
2023-07-10T07:40:43.744Z,7.10
2023-07-10T07:41:43.741Z,8.90
2023-07-10T07:42:43.731Z,10.10
2023-07-10T07:43:43.718Z,8.60
2023-07-10T07:44:43.712Z,8.60
2023-07-10T07:45:43.735Z,8.50
2023-07-10T07:46:43.714Z,7.80
2023-07-10T07:47:43.827Z,7.30
2023-07-10T07:48:43.693Z,7.30
2023-07-10T07:49:43.692Z,8.00
2023-07-10T07:50:43.701Z,8.70
2023-07-10T07:51:43.708Z,8.40
2023-07-10T07:52:43.717Z,8.10
2023-07-10T07:53:43.642Z,7.90
2023-07-10T07:54:43.641Z,9.40
2023-07-10T07:55:43.673Z,8.60
2023-07-10T07:56:43.629Z,8.30
2023-07-10T07:57:43.643Z,7.80
2023-07-10T07:58:43.626Z,8.30
2023-07-10T07:59:43.641Z,7.90
2023-07-10T08:00:43.653Z,8.40
2023-07-10T08:01:43.591Z,7.10
2023-07-10T08:02:43.633Z,7.80
2023-07-10T08:03:43.712Z,8.30
2023-07-10T08:04:43.677Z,8.20
2023-07-10T08:05:43.628Z,8.00
2023-07-10T08:06:44.625Z,7.10
2023-07-10T08:07:44.570Z,8.00
2023-07-10T08:08:43.554Z,7.00
2023-07-10T08:09:43.550Z,6.90
2023-07-10T08:10:43.561Z,7.50
2023-07-10T08:11:43.525Z,6.90
2023-07-10T08:12:43.516Z,7.50
2023-07-10T08:13:43.609Z,7.20
2023-07-10T08:14:43.524Z,8.00
2023-07-10T08:15:43.489Z,8.20
2023-07-10T08:16:43.563Z,7.40
2023-07-10T08:17:43.509Z,7.40
2023-07-10T08:18:43.534Z,8.70
2023-07-10T08:19:43.483Z,8.20
2023-07-10T08:20:43.490Z,6.90
2023-07-10T08:21:43.451Z,7.30
2023-07-10T08:22:43.499Z,6.80
2023-07-10T08:23:43.468Z,7.00
2023-07-10T08:24:43.445Z,7.20
2023-07-10T08:25:43.444Z,7.00
2023-07-10T08:26:43.439Z,6.20
2023-07-10T08:27:43.433Z,8.00
2023-07-10T08:28:43.419Z,8.00
2023-07-10T08:29:43.398Z,8.30
2023-07-10T08:30:43.421Z,6.70
2023-07-10T08:31:43.403Z,6.70
2023-07-10T08:32:43.438Z,8.30
2023-07-10T08:33:43.367Z,7.20
2023-07-10T08:34:43.388Z,7.10
2023-07-10T08:35:43.382Z,7.90
2023-07-10T08:36:43.365Z,8.10
2023-07-10T08:37:43.370Z,7.30
2023-07-10T08:38:43.337Z,6.90
2023-07-10T08:39:43.376Z,7.70
2023-07-10T08:40:43.326Z,8.30
2023-07-10T08:41:43.314Z,6.70
2023-07-10T08:42:43.323Z,7.50
2023-07-10T08:43:43.334Z,7.60
2023-07-10T08:44:43.287Z,8.20
2023-07-10T08:45:44.286Z,7.70
2023-07-10T08:46:43.354Z,7.10
2023-07-10T08:47:43.373Z,6.80
2023-07-10T08:48:43.268Z,7.20
2023-07-10T08:49:43.281Z,6.60
2023-07-10T08:50:43.266Z,7.10
2023-07-10T08:51:43.268Z,7.00
2023-07-10T08:52:43.245Z,7.30
2023-07-10T08:53:43.289Z,8.60
2023-07-10T08:54:43.236Z,8.40
2023-07-10T08:55:43.238Z,8.80
2023-07-10T08:56:43.218Z,8.30
2023-07-10T08:57:44.416Z,9.50
2023-07-10T08:58:43.203Z,9.20
2023-07-10T08:59:43.199Z,8.90
2023-07-10T09:00:43.211Z,9.50
2023-07-10T09:01:43.202Z,7.80
2023-07-10T09:02:43.274Z,10.00
2023-07-10T09:03:43.173Z,9.20
2023-07-10T09:04:43.187Z,8.90
2023-07-10T09:05:43.174Z,8.00
2023-07-10T09:06:43.153Z,8.20
2023-07-10T09:07:43.153Z,8.30
2023-07-10T09:08:43.130Z,7.50
2023-07-10T09:09:43.148Z,7.00
2023-07-10T09:10:43.114Z,7.80
2023-07-10T09:11:43.111Z,8.60
2023-07-10T09:12:43.113Z,8.10
2023-07-10T09:13:43.155Z,7.70
2023-07-10T09:14:43.137Z,8.30
2023-07-10T09:15:43.107Z,8.80
2023-07-10T09:16:43.100Z,8.30
2023-07-10T09:17:43.148Z,8.40
2023-07-10T09:18:43.080Z,8.80
2023-07-10T09:19:43.080Z,8.20
2023-07-10T09:20:43.072Z,8.90
2023-07-10T09:21:43.057Z,9.10
2023-07-10T09:22:43.050Z,9.70
2023-07-10T09:23:43.068Z,7.90
2023-07-10T09:24:43.030Z,8.30
2023-07-10T09:25:43.024Z,8.10
2023-07-10T09:26:43.045Z,8.60
2023-07-10T09:27:43.054Z,7.70
2023-07-10T09:28:43.264Z,7.70
2023-07-10T09:29:43.007Z,8.20
2023-07-10T09:30:42.990Z,8.30
2023-07-10T09:31:42.999Z,7.90
2023-07-10T09:32:43.039Z,8.30
2023-07-10T09:33:43.053Z,8.60
2023-07-10T09:34:42.954Z,8.60
2023-07-10T09:35:42.956Z,8.60
2023-07-10T09:36:43.124Z,7.80
2023-07-10T09:37:42.958Z,8.90
2023-07-10T09:38:42.957Z,9.00
2023-07-10T09:39:42.929Z,8.50
2023-07-10T09:40:42.959Z,8.30
2023-07-10T09:41:42.909Z,8.20
2023-07-10T09:42:42.945Z,8.60
2023-07-10T09:43:42.975Z,8.40
2023-07-10T09:44:42.893Z,8.30
2023-07-10T09:45:42.920Z,9.70
2023-07-10T09:46:43.055Z,8.90
2023-07-10T09:47:42.933Z,7.80
2023-07-10T09:48:42.873Z,7.50
2023-07-10T09:49:42.866Z,8.00
2023-07-10T09:50:42.860Z,6.90
2023-07-10T09:51:42.844Z,6.90
2023-07-10T09:52:42.896Z,6.60
2023-07-10T09:53:42.828Z,6.60
2023-07-10T09:54:42.821Z,6.40
2023-07-10T09:55:42.853Z,6.30
2023-07-10T09:56:42.798Z,5.80
2023-07-10T09:57:42.809Z,5.80
2023-07-10T09:58:42.810Z,7.10
2023-07-10T09:59:42.785Z,6.00
2023-07-10T10:00:42.808Z,5.50
2023-07-10T10:01:42.841Z,5.30
2023-07-10T10:02:42.793Z,5.50
2023-07-10T10:03:42.885Z,5.60
2023-07-10T10:04:42.779Z,4.90
2023-07-10T10:05:42.765Z,4.20
2023-07-10T10:06:43.846Z,4.60
2023-07-10T10:07:42.777Z,4.50
2023-07-10T10:08:42.727Z,3.70
2023-07-10T10:09:42.825Z,3.30
2023-07-10T10:10:42.754Z,3.90
2023-07-10T10:11:42.708Z,3.60
2023-07-10T10:12:42.719Z,4.10
2023-07-10T10:13:42.751Z,3.60
2023-07-10T10:14:42.705Z,3.80
2023-07-10T10:15:42.690Z,4.00
2023-07-10T10:16:42.695Z,4.40
2023-07-10T10:17:42.791Z,4.50
2023-07-10T10:18:42.861Z,4.10
2023-07-10T10:19:42.689Z,4.20
2023-07-10T10:20:42.669Z,3.50
2023-07-10T10:21:42.641Z,3.30
2023-07-10T10:22:42.637Z,2.90
2023-07-10T10:23:42.659Z,2.80
2023-07-10T10:24:42.623Z,4.10
2023-07-10T10:25:42.643Z,4.20
2023-07-10T10:26:42.641Z,4.40
2023-07-10T10:27:42.636Z,4.00
2023-07-10T10:28:42.618Z,4.30
2023-07-10T10:29:42.609Z,4.60
2023-07-10T10:30:42.575Z,4.40
2023-07-10T10:31:42.645Z,3.50
2023-07-10T10:32:42.680Z,2.50
2023-07-10T10:33:42.569Z,2.60
2023-07-10T10:34:42.556Z,2.20
2023-07-10T10:35:42.560Z,2.00
2023-07-10T10:36:42.556Z,2.20
2023-07-10T10:37:42.552Z,1.90
2023-07-10T10:38:42.544Z,1.70
2023-07-10T10:39:42.543Z,1.70
2023-07-10T10:40:42.517Z,1.80
2023-07-10T10:41:42.525Z,2.00
2023-07-10T10:42:42.502Z,1.90
2023-07-10T10:43:42.498Z,2.00
2023-07-10T10:44:42.537Z,2.10
2023-07-10T10:45:42.497Z,2.00
2023-07-10T10:46:42.492Z,2.30
2023-07-10T10:47:42.502Z,2.30
2023-07-10T10:48:42.481Z,2.40
2023-07-10T10:49:42.449Z,2.30
2023-07-10T10:50:42.468Z,2.30
2023-07-10T10:51:42.474Z,2.10
2023-07-10T10:52:42.425Z,2.40
2023-07-10T10:53:42.421Z,2.20
2023-07-10T10:54:42.420Z,2.30
2023-07-10T10:55:42.439Z,2.00
2023-07-10T10:56:42.428Z,2.20
2023-07-10T10:57:42.396Z,2.10
2023-07-10T10:58:42.407Z,2.40
2023-07-10T10:59:42.387Z,2.30
2023-07-10T11:00:42.402Z,2.00
2023-07-10T11:01:42.441Z,2.20
2023-07-10T11:02:42.461Z,2.20
2023-07-10T11:03:42.389Z,2.20
2023-07-10T11:04:42.360Z,2.30
2023-07-10T11:05:42.379Z,2.40
2023-07-10T11:06:42.339Z,2.80
2023-07-10T11:07:42.330Z,3.10
2023-07-10T11:08:42.325Z,2.40
2023-07-10T11:09:42.331Z,2.70
2023-07-10T11:10:42.323Z,2.20
2023-07-10T11:11:42.314Z,2.50
2023-07-10T11:12:42.308Z,2.50
2023-07-10T11:13:42.358Z,2.30
2023-07-10T11:14:42.316Z,2.50
2023-07-10T11:15:42.275Z,2.20
2023-07-10T11:16:42.274Z,2.50
2023-07-10T11:17:42.339Z,2.60
2023-07-10T11:18:42.247Z,2.00
2023-07-10T11:19:43.267Z,1.90
2023-07-10T11:20:42.243Z,1.60
2023-07-10T11:21:42.225Z,1.80
2023-07-10T11:22:42.222Z,1.80
2023-07-10T11:23:42.232Z,1.80
2023-07-10T11:24:42.207Z,1.70
2023-07-10T11:25:42.210Z,1.70
2023-07-10T11:26:42.199Z,1.60
2023-07-10T11:27:42.208Z,1.60
2023-07-10T11:28:43.278Z,1.70
2023-07-10T11:29:42.197Z,1.50
2023-07-10T11:30:42.151Z,1.30
2023-07-10T11:31:42.452Z,1.60
2023-07-10T11:32:42.168Z,1.70
2023-07-10T11:33:42.174Z,1.60
2023-07-10T11:34:42.157Z,1.80
2023-07-10T11:35:42.161Z,1.70
2023-07-10T11:36:42.125Z,1.80
2023-07-10T11:37:42.146Z,2.00
2023-07-10T11:38:42.110Z,1.80
2023-07-10T11:39:42.162Z,1.80
2023-07-10T11:40:42.109Z,1.80
2023-07-10T11:41:42.096Z,1.90
2023-07-10T11:42:42.943Z,1.60
2023-07-10T11:43:42.074Z,1.90
2023-07-10T11:44:42.101Z,1.80
2023-07-10T11:45:42.085Z,1.80
2023-07-10T11:46:42.140Z,1.80
2023-07-10T11:47:42.891Z,1.70
2023-07-10T11:48:42.040Z,1.70
2023-07-10T11:49:43.034Z,1.60
2023-07-10T11:50:42.046Z,1.70
2023-07-10T11:51:42.067Z,1.70
2023-07-10T11:52:42.033Z,1.50
2023-07-10T11:53:43.381Z,1.60
2023-07-10T11:54:42.030Z,1.40
2023-07-10T11:55:42.187Z,1.70
2023-07-10T11:56:42.042Z,1.70
2023-07-10T11:57:42.016Z,1.60
2023-07-10T11:58:44.648Z,1.50
2023-07-10T11:59:44.596Z,1.50
2023-07-10T12:00:45.444Z,1.60
2023-07-10T12:01:41.997Z,1.60
2023-07-10T12:02:42.003Z,2.20
2023-07-10T12:03:42.023Z,1.70
2023-07-10T12:04:41.949Z,1.70
2023-07-10T12:05:42.450Z,1.40
2023-07-10T12:06:41.940Z,1.50
2023-07-10T12:07:42.791Z,1.70
2023-07-10T12:08:41.927Z,1.50
2023-07-10T12:09:41.933Z,1.60
2023-07-10T12:10:41.945Z,1.50
2023-07-10T12:11:42.201Z,1.60
2023-07-10T12:12:41.932Z,1.60
2023-07-10T12:13:41.955Z,1.70
2023-07-10T12:14:41.935Z,1.50
2023-07-10T12:15:41.931Z,1.50
2023-07-10T12:16:47.589Z,1.80
2023-07-10T12:17:43.948Z,1.90
2023-07-10T12:18:42.656Z,1.50
2023-07-10T12:19:41.892Z,1.60
2023-07-10T12:20:41.873Z,1.60
2023-07-10T12:21:41.857Z,1.70
2023-07-10T12:22:41.866Z,1.50
2023-07-10T12:23:41.847Z,1.60
2023-07-10T12:24:41.851Z,1.70
2023-07-10T12:25:41.832Z,1.50
2023-07-10T12:28:42.867Z,1.80
2023-07-10T12:29:41.831Z,1.90
2023-07-10T12:30:41.818Z,1.80
2023-07-10T12:31:41.785Z,1.70
2023-07-10T12:32:42.813Z,1.50
2023-07-10T12:33:41.946Z,1.70
2023-07-10T12:34:41.805Z,1.70
2023-07-10T12:35:41.792Z,1.80
2023-07-10T12:36:41.787Z,1.70
2023-07-10T12:37:41.765Z,1.80
2023-07-10T12:38:41.777Z,1.80
2023-07-10T12:39:41.747Z,1.70
2023-07-10T12:40:41.732Z,1.70
2023-07-10T12:41:41.746Z,1.60
2023-07-10T12:42:41.751Z,1.70
2023-07-10T12:43:41.721Z,1.70
2023-07-10T12:44:41.711Z,1.70
2023-07-10T12:45:41.759Z,1.60
2023-07-10T12:46:41.741Z,1.70
2023-07-10T12:47:53.256Z,1.70
2023-07-10T12:48:43.701Z,2.00
2023-07-10T12:49:41.696Z,2.00
2023-07-10T12:50:41.667Z,1.80
2023-07-10T12:51:41.709Z,1.90
2023-07-10T12:52:41.670Z,1.60
2023-07-10T12:53:41.688Z,1.90
2023-07-10T12:54:41.701Z,1.80
2023-07-10T12:55:42.863Z,1.80
2023-07-10T12:56:41.665Z,2.00
2023-07-10T12:57:41.647Z,1.60
2023-07-10T12:58:41.645Z,1.50
2023-07-10T12:59:41.612Z,1.70
2023-07-10T13:00:41.668Z,1.50
2023-07-10T13:01:41.706Z,1.60
2023-07-10T13:02:41.650Z,1.60
2023-07-10T13:03:41.692Z,1.40
2023-07-10T13:04:41.582Z,1.50
2023-07-10T13:05:41.586Z,1.40
2023-07-10T13:06:41.572Z,1.60
2023-07-10T13:07:41.592Z,1.50
2023-07-10T13:08:41.590Z,1.40
2023-07-10T13:09:41.551Z,1.70
2023-07-10T13:10:41.601Z,1.80
2023-07-10T13:11:42.774Z,1.60
2023-07-10T13:12:42.528Z,1.50
2023-07-10T13:13:41.581Z,1.70
2023-07-10T13:14:41.582Z,1.70
2023-07-10T13:15:41.516Z,1.40
2023-07-10T13:16:41.550Z,1.50
2023-07-10T13:17:41.492Z,1.50
2023-07-10T13:18:41.489Z,1.50
2023-07-10T13:19:46.971Z,1.50
2023-07-10T13:20:42.489Z,1.60